• Join FlightAware (Why Join?)
  • Login
  • US Flag 
02:41AM EDT


 

Airport Tracker/Info


-or-


 

Live Flight TrackerFlight Track Log ✈ DAL6034 ✈ 14-Apr-2013 ✈ KLGA - KMHT

Flight Track Log - Related Links

Times and Time Zones

All times are in EDT time to prevent confusion due to time zone crossing. See the DAL6034 flight status page for this flight to view local times or setup timezone preferences in your user account.

Time Position Orientation Groundspeed Altitude Reporting Facility
EDT Latitude Longitude Course Direction KTS MPH feet Rate Location/Type
03:26PM 40.8167 -73.8333 33° Northeast 194 223 2,400  Level New York TRACON
03:28PM 40.9047 -73.7608 32° Northeast 239 275 6,400 2,460 Climbing Boston Center
03:29PM 40.9639 -73.6936 41° Northeast 254 292 8,900 2,400 Climbing Boston Center
03:30PM 41.0183 -73.6533 29° Northeast 254 292 11,200 2,460 Climbing Boston Center
03:31PM 41.0961 -73.5997 27° Northeast 270 311 13,800 2,040 Climbing Boston Center
03:32PM 41.2170 -73.5102 33° Northeast  Level FlightAware Approximate
03:32PM 41.1550 -73.5567 29° Northeast 270 311 15,400  Level Boston Center
03:33PM 41.2389 -73.4917 30° Northeast 295 339 16,600 1,260 Climbing Boston Center
03:34PM 41.3164 -73.4350 29° Northeast 333 383 17,900 1,320 Climbing Boston Center
03:35PM 41.4067 -73.3700 28° Northeast 350 403 19,200 1,320 Climbing Boston Center
03:36PM 41.4967 -73.2992 31° Northeast 363 418 20,600 1,380 Climbing Boston Center
03:37PM 41.5906 -73.2922 North 341 392 22,100 1,140 Climbing Boston Center
03:38PM 41.6886 -73.2964 358° North 341 392 23,000 420 Climbing Boston Center
03:39PM 41.7928 -73.3006 358° North 349 402 23,000  Level Boston Center
03:40PM 41.8969 -73.3047 358° North 365 420 23,000  Level Boston Center
03:41PM 42.0011 -73.3089 358° North 365 420 23,000  Level Boston Center
03:42PM 42.1072 -73.3131 358° North 371 427 23,000  Level Boston Center
03:43PM 42.1908 -73.2919 11° North 371 427 23,000  Level Boston Center
03:44PM 42.2939 -73.1503 45° Northeast 391 450 23,000 -660 Level Boston Center
03:45PM 42.3761 -73.0161 50° Northeast 414 476 21,600 -1,500 Descending Boston Center
03:46PM 42.4642 -72.8567 53° Northeast 436 502 19,700 -1,200 Descending Boston Center
03:47PM 42.5481 -72.7133 52° Northeast 416 479 19,000 -1,140 Descending Boston Center
03:48PM 42.6211 -72.5811 53° Northeast 404 465 17,500 -1,800 Descending Boston Center
03:49PM 42.6631 -72.4458 67° East 391 450 15,400 -1,920 Descending Boston Center
03:50PM 42.6942 -72.3469 67° East 368 423 13,700 -1,920 Descending Boston Center
03:51PM 42.7294 -72.2281 68° East 354 407 11,600 -1,800 Descending Boston Center
03:52PM 42.7564 -72.1036 74° East 319 367 10,100 -1,500 Descending Boston Center
03:53PM 42.7622 -71.9819 86° East 298 343 8,600 -1,440 Descending Boston Center
03:54PM 42.7658 -71.8886 87° East 279 321 7,300 -1,440 Descending Boston Center
03:55PM 42.7736 -71.7725 85° East 274 315 5,800 -1,740 Descending Boston Center
03:56PM 42.7772 -71.6819 87° East 269 310 3,900 -1,380 Descending Boston Center
03:57PM 42.7847 -71.5744 85° East 264 304 3,100 -600 Descending Boston Center
03:58PM 42.7903 -71.4922 85° East 254 292 2,800 -420 Descending Boston Center
03:59PM 42.8103 -71.3958 74° East 246 283 2,300 -540 Descending Boston Center
04:00PM 42.8561 -71.3892 North 175 201 1,800 -720 Descending Boston Center
04:01PM 42.8958 -71.4114 338° Northwest 126 145 900 -660 Descending Boston Center
04:02PM 42.9253 -71.4222 345° North 126 145 500 8,880 Descending Boston Center
04:03PM 42.9567 -71.4358 342° North 126 145 19,000 9,360 Climbing Boston Center
04:04PM 42.9881 -71.4494 342° North 126 145 19,000  Level Boston Center
04:06PM 42.9328 -71.4358 316° Northwest  Level Estimated